Terminal Aerodrome Forecast
Issued by NWS Albany, NY

Home | Current Version | Previous Version | Text Only | Print | Product List | Glossary On
Versions: 1 2 3 4 5 6 7 8 9 10 11 12 13 14 15 16 17 18
000
FTUS41 KALY 310951 AAA
TAFALB
TAF AMD
KALB 310951Z 3110/0106 34005KT 4SM -RA BR SCT008 OVC025
      TEMPO 3110/3112 2SM RA BR BKN008 OVC015
     FM311200 02005KT 2SM -RA BR SCT008 OVC020
     FM311700 07005KT 3SM -SHRA BR SCT008 OVC012
     FM010000 10005KT 2SM -SHRA BR OVC008=

USA.gov is the U.S. government's official web portal to all federal, state and local government web resources and services.